createdAt,value
2019-02-18T00:00:59.590Z,5.50
2019-02-18T00:02:12.822Z,5.50
2019-02-18T00:03:26.049Z,5.50
2019-02-18T00:04:39.277Z,5.50
2019-02-18T00:05:52.493Z,5.50
2019-02-18T00:07:14.172Z,5.50
2019-02-18T00:08:20.675Z,5.50
2019-02-18T00:09:33.890Z,5.60
2019-02-18T00:10:47.110Z,5.60
2019-02-18T00:12:00.369Z,5.50
2019-02-18T00:13:13.601Z,5.50
2019-02-18T00:14:27.085Z,5.60
2019-02-18T00:15:40.302Z,5.60
2019-02-18T00:16:53.530Z,5.60
2019-02-18T00:18:06.770Z,5.50
2019-02-18T00:19:19.993Z,5.50
2019-02-18T00:20:33.228Z,5.50
2019-02-18T00:21:46.436Z,5.60
2019-02-18T00:22:59.656Z,5.50
2019-02-18T00:24:12.887Z,5.60
2019-02-18T00:25:26.102Z,5.60
2019-02-18T00:26:39.322Z,5.60
2019-02-18T00:27:52.538Z,5.60
2019-02-18T00:29:05.776Z,5.50
2019-02-18T00:30:19.719Z,5.50
2019-02-18T00:31:32.942Z,5.40
2019-02-18T00:32:46.167Z,5.30
2019-02-18T00:33:59.405Z,5.20
2019-02-18T00:35:12.641Z,5.10
2019-02-18T00:36:25.865Z,5.10
2019-02-18T00:37:39.091Z,5.00
2019-02-18T00:38:52.314Z,4.90
2019-02-18T00:40:07.885Z,4.90
2019-02-18T00:41:21.104Z,4.90
2019-02-18T00:42:35.046Z,4.90
2019-02-18T00:43:48.274Z,4.90
2019-02-18T00:45:01.496Z,4.90
2019-02-18T00:46:14.721Z,4.80
2019-02-18T00:47:27.962Z,4.80
2019-02-18T00:48:41.233Z,4.90
2019-02-18T00:49:54.461Z,4.90
2019-02-18T00:51:07.699Z,5.10
2019-02-18T00:52:20.924Z,5.10
2019-02-18T00:53:34.141Z,5.20
2019-02-18T00:54:47.370Z,5.20
2019-02-18T00:56:00.615Z,5.30
2019-02-18T00:57:13.837Z,5.30
2019-02-18T00:58:27.053Z,5.20
2019-02-18T00:59:40.278Z,5.10
2019-02-18T01:00:55.138Z,5.10
2019-02-18T01:02:08.374Z,5.00
2019-02-18T01:03:21.626Z,5.00
2019-02-18T01:04:34.846Z,4.90
2019-02-18T01:05:48.060Z,4.90
2019-02-18T01:07:01.294Z,4.80
2019-02-18T01:08:14.517Z,4.80
2019-02-18T01:09:27.742Z,4.80
2019-02-18T01:10:40.970Z,4.70
2019-02-18T01:11:54.187Z,4.70
2019-02-18T01:13:07.430Z,4.60
2019-02-18T01:14:20.641Z,4.60
2019-02-18T01:15:33.878Z,4.60
2019-02-18T01:16:47.093Z,4.60
2019-02-18T01:18:00.318Z,4.70
2019-02-18T01:19:13.550Z,4.70
2019-02-18T01:20:26.774Z,4.80
2019-02-18T01:21:39.994Z,4.70
2019-02-18T01:22:53.214Z,4.80
2019-02-18T01:24:06.446Z,4.90
2019-02-18T01:25:19.661Z,4.90
2019-02-18T01:26:32.882Z,4.80
2019-02-18T01:27:46.098Z,4.80
2019-02-18T01:28:59.377Z,4.80
2019-02-18T01:30:16.195Z,4.80
2019-02-18T01:31:30.676Z,4.70
2019-02-18T01:32:43.906Z,4.60
2019-02-18T01:33:57.121Z,4.60
2019-02-18T01:35:10.363Z,4.50
2019-02-18T01:36:23.595Z,4.50
2019-02-18T01:37:45.366Z,4.60
2019-02-18T01:38:51.745Z,4.50
2019-02-18T01:40:07.809Z,4.50
2019-02-18T01:41:21.045Z,4.50
2019-02-18T01:42:34.261Z,4.50
2019-02-18T01:43:47.483Z,4.40
2019-02-18T01:45:00.701Z,4.30
2019-02-18T01:46:13.928Z,4.20
2019-02-18T01:47:27.161Z,4.30
2019-02-18T01:48:40.378Z,4.30
2019-02-18T01:49:53.601Z,4.10
2019-02-18T01:51:06.833Z,4.10
2019-02-18T01:52:20.050Z,4.00
2019-02-18T01:53:33.273Z,4.00
2019-02-18T01:54:46.501Z,4.00
2019-02-18T01:55:59.717Z,4.00
2019-02-18T01:57:12.938Z,4.00
2019-02-18T01:58:26.178Z,4.00
2019-02-18T01:59:39.409Z,4.00
2019-02-18T02:00:52.634Z,4.00
2019-02-18T02:02:06.106Z,4.00
2019-02-18T02:03:19.335Z,3.90
2019-02-18T02:04:32.610Z,3.90
2019-02-18T02:05:45.875Z,3.80
2019-02-18T02:06:59.110Z,3.70
2019-02-18T02:08:12.323Z,3.60
2019-02-18T02:09:25.559Z,3.40
2019-02-18T02:10:38.786Z,3.30
2019-02-18T02:11:52.077Z,3.20
2019-02-18T02:13:28.066Z,3.20
2019-02-18T02:14:41.306Z,3.20
2019-02-18T02:15:54.590Z,3.20
2019-02-18T02:17:07.821Z,3.20
2019-02-18T02:18:21.041Z,3.20
2019-02-18T02:19:34.263Z,3.20
2019-02-18T02:20:47.952Z,3.20
2019-02-18T02:22:01.180Z,3.10
2019-02-18T02:23:14.397Z,3.10
2019-02-18T02:24:27.626Z,3.10
2019-02-18T02:25:40.903Z,3.00
2019-02-18T02:26:54.149Z,2.90
2019-02-18T02:28:07.424Z,2.80
2019-02-18T02:29:20.690Z,2.80
2019-02-18T02:30:33.916Z,2.90
2019-02-18T02:31:47.141Z,2.90
2019-02-18T02:33:00.377Z,2.80
2019-02-18T02:34:13.611Z,2.80
2019-02-18T02:35:26.839Z,2.60
2019-02-18T02:36:40.309Z,2.60
2019-02-18T02:37:53.534Z,2.60
2019-02-18T02:39:06.842Z,2.60
2019-02-18T02:40:21.325Z,2.50
2019-02-18T02:41:34.548Z,2.50
2019-02-18T02:42:47.783Z,2.50
2019-02-18T02:44:01.242Z,2.50
2019-02-18T02:45:14.460Z,2.40
2019-02-18T02:46:27.673Z,2.40
2019-02-18T02:47:40.903Z,2.40
2019-02-18T02:48:54.133Z,2.40
2019-02-18T02:50:07.797Z,2.40
2019-02-18T02:51:21.769Z,2.50
2019-02-18T02:52:34.986Z,2.60
2019-02-18T02:53:48.218Z,2.60
2019-02-18T02:55:01.445Z,2.60
2019-02-18T02:56:14.666Z,2.60
2019-02-18T02:57:27.886Z,2.60
2019-02-18T02:58:41.124Z,2.60
2019-02-18T02:59:54.347Z,2.60
2019-02-18T03:01:07.572Z,2.60
2019-02-18T03:02:20.802Z,2.60
2019-02-18T03:03:34.030Z,2.60
2019-02-18T03:04:47.248Z,2.50
2019-02-18T03:06:00.470Z,2.50
2019-02-18T03:07:14.162Z,2.50
2019-02-18T03:08:27.384Z,2.60
2019-02-18T03:09:40.601Z,2.50
2019-02-18T03:10:53.841Z,2.50
2019-02-18T03:12:07.068Z,2.50
2019-02-18T03:13:20.295Z,2.40
2019-02-18T03:14:33.520Z,2.40
2019-02-18T03:15:46.749Z,2.40
2019-02-18T03:16:59.975Z,2.30
2019-02-18T03:18:13.208Z,2.30
2019-02-18T03:19:26.430Z,2.30
2019-02-18T03:20:39.653Z,2.20
2019-02-18T03:21:52.887Z,2.20
2019-02-18T03:23:06.121Z,2.20
2019-02-18T03:24:19.354Z,2.10
2019-02-18T03:25:32.854Z,2.10
2019-02-18T03:26:46.548Z,2.00
2019-02-18T03:28:29.326Z,2.00
2019-02-18T03:29:54.377Z,2.00
2019-02-18T03:31:13.524Z,1.90
2019-02-18T03:32:26.754Z,1.90
2019-02-18T03:33:48.772Z,1.90
2019-02-18T03:35:02.036Z,2.00
2019-02-18T03:36:15.258Z,2.00
2019-02-18T03:37:28.485Z,2.10
2019-02-18T03:38:41.718Z,2.10
2019-02-18T03:39:54.943Z,2.10
2019-02-18T03:41:08.160Z,2.20
2019-02-18T03:42:21.381Z,2.20
2019-02-18T03:43:34.611Z,2.20
2019-02-18T03:44:47.841Z,2.20
2019-02-18T03:46:01.075Z,2.20
2019-02-18T03:47:14.301Z,2.20
2019-02-18T03:48:27.520Z,2.20
2019-02-18T03:49:40.749Z,2.20
2019-02-18T03:50:53.997Z,2.20
2019-02-18T03:52:07.205Z,2.10
2019-02-18T03:53:20.422Z,2.10
2019-02-18T03:54:33.728Z,2.20
2019-02-18T03:55:47.026Z,2.20
2019-02-18T03:57:00.243Z,2.20
2019-02-18T03:58:13.457Z,2.30
2019-02-18T03:59:26.684Z,2.30
2019-02-18T04:00:39.901Z,2.30
2019-02-18T04:01:53.131Z,2.40
2019-02-18T04:03:06.351Z,2.40
2019-02-18T04:04:19.570Z,2.40
2019-02-18T04:05:32.794Z,2.40
2019-02-18T04:06:46.009Z,2.40
2019-02-18T04:07:59.254Z,2.50
2019-02-18T04:09:12.478Z,2.50
2019-02-18T04:10:25.702Z,2.50
2019-02-18T04:11:38.926Z,2.60
2019-02-18T04:12:52.146Z,2.50
2019-02-18T04:14:05.377Z,2.60
2019-02-18T04:15:18.675Z,2.60
2019-02-18T04:16:31.887Z,2.60
2019-02-18T04:17:45.106Z,2.60
2019-02-18T04:18:58.371Z,2.60
2019-02-18T04:20:11.584Z,2.70
2019-02-18T04:21:24.798Z,2.70
2019-02-18T04:22:38.029Z,2.70
2019-02-18T04:23:51.250Z,2.70
2019-02-18T04:25:05.741Z,2.60
2019-02-18T04:26:18.955Z,2.60
2019-02-18T04:27:32.166Z,2.50
2019-02-18T04:28:45.383Z,2.50
2019-02-18T04:29:58.602Z,2.50
2019-02-18T04:31:11.862Z,2.40
2019-02-18T04:32:25.092Z,2.40
2019-02-18T04:33:38.309Z,2.40
2019-02-18T04:34:51.553Z,2.30
2019-02-18T04:36:04.886Z,2.30
2019-02-18T04:37:18.085Z,2.30
2019-02-18T04:38:31.318Z,2.30
2019-02-18T04:39:44.547Z,2.20
2019-02-18T04:40:57.768Z,2.20
2019-02-18T04:42:11.019Z,2.20
2019-02-18T04:43:24.250Z,2.20
2019-02-18T04:44:37.479Z,2.20
2019-02-18T04:45:51.795Z,2.20
2019-02-18T04:47:05.047Z,2.20
2019-02-18T04:48:18.265Z,2.20
2019-02-18T04:49:31.482Z,2.20
2019-02-18T04:50:44.708Z,2.20
2019-02-18T04:51:57.925Z,2.20
2019-02-18T04:53:11.184Z,2.20
2019-02-18T04:54:24.407Z,2.30
2019-02-18T04:55:38.350Z,2.30
2019-02-18T04:56:51.663Z,2.30
2019-02-18T04:58:06.210Z,2.30
2019-02-18T04:59:19.599Z,2.30
2019-02-18T05:00:32.823Z,2.20
2019-02-18T05:01:46.052Z,2.30
2019-02-18T05:02:59.274Z,2.20
2019-02-18T05:04:14.189Z,2.20
2019-02-18T05:05:27.502Z,2.20
2019-02-18T05:06:40.746Z,2.20
2019-02-18T05:07:54.042Z,2.10
2019-02-18T05:09:07.265Z,2.00
2019-02-18T05:10:22.118Z,2.00
2019-02-18T05:11:35.398Z,1.90
2019-02-18T05:12:48.638Z,1.90
2019-02-18T05:14:01.853Z,1.90
2019-02-18T05:15:15.066Z,1.80
2019-02-18T05:16:28.290Z,1.70
2019-02-18T05:17:41.519Z,1.80
2019-02-18T05:18:54.753Z,1.70
2019-02-18T05:20:08.612Z,1.80
2019-02-18T05:21:21.841Z,1.80
2019-02-18T05:22:35.059Z,1.80
2019-02-18T05:23:48.298Z,1.80
2019-02-18T05:25:01.524Z,1.80
2019-02-18T05:26:14.771Z,1.80
2019-02-18T05:27:33.256Z,1.90
2019-02-18T05:28:42.987Z,1.90
2019-02-18T05:29:56.213Z,1.90
2019-02-18T05:31:09.451Z,1.90
2019-02-18T05:32:22.666Z,1.80
2019-02-18T05:33:35.890Z,1.80
2019-02-18T05:34:49.823Z,1.80
2019-02-18T05:36:03.031Z,1.80
2019-02-18T05:37:16.264Z,1.80
2019-02-18T05:38:29.495Z,1.90
2019-02-18T05:39:42.717Z,1.80
2019-02-18T05:40:55.950Z,1.90
2019-02-18T05:42:09.186Z,2.00
2019-02-18T05:43:22.411Z,1.90
2019-02-18T05:44:35.697Z,2.00
2019-02-18T05:45:49.394Z,2.10
2019-02-18T05:47:02.619Z,2.10
2019-02-18T05:48:16.074Z,2.20
2019-02-18T05:49:29.316Z,2.20
2019-02-18T05:50:42.540Z,2.10
2019-02-18T05:51:55.771Z,2.10
2019-02-18T05:53:08.993Z,2.10
2019-02-18T05:54:22.231Z,2.10
2019-02-18T05:55:35.448Z,2.10
2019-02-18T05:56:48.762Z,2.10
2019-02-18T05:58:02.002Z,2.10
2019-02-18T05:59:15.245Z,2.00
2019-02-18T06:00:28.544Z,2.10
2019-02-18T06:01:41.809Z,2.00
2019-02-18T06:02:55.060Z,2.00
2019-02-18T06:04:08.292Z,1.90
2019-02-18T06:05:21.522Z,1.90
2019-02-18T06:06:34.823Z,1.80
2019-02-18T06:07:48.049Z,1.80
2019-02-18T06:09:01.284Z,1.80
2019-02-18T06:10:16.993Z,1.80
2019-02-18T06:11:29.447Z,1.80
2019-02-18T06:12:42.670Z,1.80
2019-02-18T06:13:55.910Z,1.80
2019-02-18T06:15:09.816Z,1.80
2019-02-18T06:16:23.273Z,1.90
2019-02-18T06:17:36.499Z,1.90
2019-02-18T06:18:50.290Z,1.90
2019-02-18T06:20:04.155Z,2.00
2019-02-18T06:21:17.378Z,1.90
2019-02-18T06:22:30.666Z,1.90
2019-02-18T06:23:44.118Z,1.90
2019-02-18T06:24:57.357Z,1.90
2019-02-18T06:26:11.619Z,1.90
2019-02-18T06:27:24.914Z,1.90
2019-02-18T06:28:38.133Z,1.90
2019-02-18T06:29:51.372Z,1.90
2019-02-18T06:31:04.606Z,1.90
2019-02-18T06:32:17.837Z,2.00
2019-02-18T06:33:31.062Z,2.00
2019-02-18T06:34:44.294Z,2.00
2019-02-18T06:35:57.590Z,2.10
2019-02-18T06:37:10.818Z,2.10
2019-02-18T06:38:24.111Z,2.10
2019-02-18T06:39:41.402Z,2.10
2019-02-18T06:40:52.286Z,2.20
2019-02-18T06:42:05.512Z,2.10
2019-02-18T06:43:18.745Z,2.20
2019-02-18T06:44:36.318Z,2.20
2019-02-18T06:45:56.847Z,2.20
2019-02-18T06:47:10.449Z,2.30
2019-02-18T06:48:25.309Z,2.30
2019-02-18T06:49:38.549Z,2.30
2019-02-18T06:50:51.779Z,2.30
2019-02-18T06:52:05.003Z,2.40
2019-02-18T06:53:18.233Z,2.40
2019-02-18T06:54:31.466Z,2.40
2019-02-18T06:55:44.701Z,2.40
2019-02-18T06:57:08.495Z,2.50
2019-02-18T06:58:25.769Z,2.50
2019-02-18T06:59:40.633Z,2.50
2019-02-18T07:01:07.534Z,2.50
2019-02-18T07:02:28.099Z,2.60
2019-02-18T07:03:42.976Z,2.70
2019-02-18T07:05:00.541Z,2.70
2019-02-18T07:06:15.422Z,2.70
2019-02-18T07:07:33.254Z,2.70
2019-02-18T07:09:04.104Z,2.70
2019-02-18T07:10:25.273Z,2.70
2019-02-18T07:11:40.227Z,2.80
2019-02-18T07:12:53.442Z,2.80
2019-02-18T07:14:06.664Z,2.80
2019-02-18T07:15:20.372Z,2.80
2019-02-18T07:16:33.578Z,2.80
2019-02-18T07:17:46.809Z,2.90
2019-02-18T07:19:00.033Z,2.90
2019-02-18T07:20:13.265Z,2.90
2019-02-18T07:21:26.491Z,3.00
2019-02-18T07:22:39.719Z,3.10
2019-02-18T07:23:52.957Z,3.20
2019-02-18T07:25:08.177Z,3.20
2019-02-18T07:26:21.398Z,3.20
2019-02-18T07:27:34.628Z,3.20
2019-02-18T07:28:47.859Z,3.20
2019-02-18T07:30:01.086Z,3.30
2019-02-18T07:31:14.305Z,3.40
2019-02-18T07:32:27.538Z,3.50
2019-02-18T07:33:40.774Z,3.50
2019-02-18T07:34:54.025Z,3.50
2019-02-18T07:36:07.306Z,3.50
2019-02-18T07:37:20.530Z,3.50
2019-02-18T07:38:33.759Z,3.60
2019-02-18T07:39:46.996Z,3.60
2019-02-18T07:41:00.214Z,3.60
2019-02-18T07:42:13.434Z,3.70
2019-02-18T07:43:26.658Z,3.80
2019-02-18T07:44:39.901Z,3.80
2019-02-18T07:45:53.204Z,3.90
2019-02-18T07:47:06.426Z,4.00
2019-02-18T07:48:19.661Z,4.00
2019-02-18T07:49:32.886Z,4.10
2019-02-18T07:50:46.131Z,4.10
2019-02-18T07:51:59.342Z,4.20
2019-02-18T07:53:12.570Z,4.10
2019-02-18T07:54:25.792Z,4.20
2019-02-18T07:55:39.266Z,4.30
2019-02-18T07:56:52.494Z,4.30
2019-02-18T07:58:05.717Z,4.40
2019-02-18T07:59:18.950Z,4.40
2019-02-18T08:00:32.175Z,4.50
2019-02-18T08:01:45.394Z,4.50
2019-02-18T08:02:58.624Z,4.60
2019-02-18T08:04:11.867Z,4.60
2019-02-18T08:05:25.086Z,4.70
2019-02-18T08:06:38.322Z,4.70
2019-02-18T08:07:51.795Z,4.80
2019-02-18T08:09:06.234Z,4.80
2019-02-18T08:10:19.447Z,4.90
2019-02-18T08:11:32.671Z,4.90
2019-02-18T08:12:45.906Z,5.00
2019-02-18T08:13:59.137Z,5.00
2019-02-18T08:15:13.986Z,5.00
2019-02-18T08:16:27.219Z,5.00
2019-02-18T08:17:40.448Z,5.10
2019-02-18T08:18:55.430Z,5.10
2019-02-18T08:20:10.546Z,5.10
2019-02-18T08:21:23.773Z,5.10
2019-02-18T08:22:39.208Z,5.20
2019-02-18T08:23:59.582Z,5.30
2019-02-18T08:25:10.254Z,5.30
2019-02-18T08:26:25.129Z,5.40
2019-02-18T08:27:38.366Z,5.50
2019-02-18T08:28:51.581Z,5.50
2019-02-18T08:30:09.116Z,5.60
2019-02-18T08:31:22.350Z,5.60
2019-02-18T08:32:35.574Z,5.70
2019-02-18T08:33:48.806Z,5.80
2019-02-18T08:35:02.030Z,5.80
2019-02-18T08:36:18.165Z,5.80
2019-02-18T08:37:31.410Z,5.90
2019-02-18T08:38:45.113Z,6.00
2019-02-18T08:39:58.341Z,6.00
2019-02-18T08:41:11.560Z,6.10
2019-02-18T08:42:24.781Z,6.10
2019-02-18T08:43:38.032Z,6.20
2019-02-18T08:44:51.566Z,6.20
2019-02-18T08:46:04.793Z,6.30
2019-02-18T08:47:18.019Z,6.40
2019-02-18T08:48:31.249Z,6.40
2019-02-18T08:49:44.481Z,6.40
2019-02-18T08:50:59.813Z,6.40
2019-02-18T08:52:13.091Z,6.40
2019-02-18T08:53:26.318Z,6.50
2019-02-18T08:54:42.663Z,6.60
2019-02-18T08:55:55.893Z,6.60
2019-02-18T08:57:09.110Z,6.70
2019-02-18T08:58:22.365Z,6.80
2019-02-18T08:59:35.603Z,6.80
2019-02-18T09:00:48.823Z,6.90
2019-02-18T09:02:02.058Z,6.90
2019-02-18T09:03:15.274Z,7.00
2019-02-18T09:04:28.567Z,7.10
2019-02-18T09:05:41.792Z,7.20
2019-02-18T09:06:56.261Z,7.20
2019-02-18T09:08:09.482Z,7.30
2019-02-18T09:09:22.715Z,7.40
2019-02-18T09:10:36.185Z,7.40
2019-02-18T09:11:49.409Z,7.50
2019-02-18T09:13:02.666Z,7.50
2019-02-18T09:14:15.921Z,7.60
2019-02-18T09:15:29.143Z,7.70
2019-02-18T09:16:42.395Z,7.70
2019-02-18T09:17:55.610Z,7.70
2019-02-18T09:19:08.846Z,7.70
2019-02-18T09:20:22.069Z,7.80
2019-02-18T09:21:35.561Z,7.80
2019-02-18T09:22:53.077Z,8.00
2019-02-18T09:24:13.982Z,8.00
2019-02-18T09:25:31.546Z,8.20
2019-02-18T09:26:44.789Z,8.20
2019-02-18T09:27:58.018Z,8.30
2019-02-18T09:29:11.246Z,8.40
2019-02-18T09:30:26.130Z,8.50
2019-02-18T09:31:39.371Z,8.60
2019-02-18T09:32:52.600Z,8.60
2019-02-18T09:34:05.822Z,8.70
2019-02-18T09:35:19.045Z,8.80
2019-02-18T09:36:32.741Z,8.90
2019-02-18T09:37:45.980Z,8.90
2019-02-18T09:38:59.197Z,9.00
2019-02-18T09:40:12.431Z,9.10
2019-02-18T09:41:25.668Z,9.10
2019-02-18T09:42:38.895Z,9.20
2019-02-18T09:43:52.123Z,9.20
2019-02-18T09:45:08.477Z,9.20
2019-02-18T09:46:21.705Z,9.20
2019-02-18T09:47:34.946Z,9.20
2019-02-18T09:48:49.358Z,9.30
2019-02-18T09:50:02.679Z,9.40
2019-02-18T09:51:15.902Z,9.50
2019-02-18T09:52:29.121Z,9.60
2019-02-18T09:53:42.362Z,9.70
2019-02-18T09:54:55.596Z,9.70
2019-02-18T09:56:08.813Z,9.70
2019-02-18T09:57:22.072Z,9.80
2019-02-18T09:58:35.350Z,9.80
2019-02-18T09:59:48.810Z,9.80
2019-02-18T10:01:02.086Z,9.90
2019-02-18T10:02:15.334Z,10.00
2019-02-18T10:03:32.154Z,10.00
2019-02-18T10:04:44.232Z,10.00
2019-02-18T10:05:57.462Z,10.00
2019-02-18T10:07:10.685Z,10.00
2019-02-18T10:08:23.923Z,10.10
2019-02-18T10:09:37.158Z,10.10
2019-02-18T10:10:55.920Z,10.10
2019-02-18T10:12:05.334Z,10.20
2019-02-18T10:13:18.573Z,10.30
2019-02-18T10:14:32.265Z,10.40
2019-02-18T10:15:45.497Z,10.50
2019-02-18T10:16:58.963Z,10.50
2019-02-18T10:18:12.193Z,10.60
2019-02-18T10:19:25.417Z,10.60
2019-02-18T10:20:38.658Z,10.60
2019-02-18T10:21:51.890Z,10.70
2019-02-18T10:23:05.122Z,10.70
2019-02-18T10:24:18.346Z,10.80
2019-02-18T10:25:31.581Z,10.70
2019-02-18T10:26:44.810Z,10.70
2019-02-18T10:27:58.031Z,10.80
2019-02-18T10:29:11.249Z,10.80
2019-02-18T10:30:24.493Z,10.90
2019-02-18T10:31:37.729Z,10.90
2019-02-18T10:32:50.962Z,10.90
2019-02-18T10:34:04.207Z,10.90
2019-02-18T10:35:17.436Z,10.90
2019-02-18T10:36:30.734Z,10.70
2019-02-18T10:37:43.967Z,10.70
2019-02-18T10:38:57.189Z,10.70
2019-02-18T10:40:10.671Z,10.70
2019-02-18T10:41:23.898Z,10.70
2019-02-18T10:42:37.122Z,10.70
2019-02-18T10:43:50.354Z,10.80
2019-02-18T10:45:04.357Z,10.80
2019-02-18T10:46:17.596Z,10.90
2019-02-18T10:47:30.820Z,10.90
2019-02-18T10:48:44.046Z,11.00
2019-02-18T10:49:57.277Z,11.10
2019-02-18T10:51:10.517Z,11.10
2019-02-18T10:52:23.978Z,11.20
2019-02-18T10:53:37.200Z,11.30
2019-02-18T10:54:50.509Z,11.40
2019-02-18T10:56:03.840Z,11.40
2019-02-18T10:57:17.062Z,11.40
2019-02-18T10:58:30.300Z,11.40
2019-02-18T10:59:44.800Z,11.50
2019-02-18T11:00:58.316Z,11.60
2019-02-18T11:02:11.625Z,11.70
2019-02-18T11:03:24.852Z,11.70
2019-02-18T11:04:38.117Z,11.90
2019-02-18T11:05:52.070Z,12.00
2019-02-18T11:07:05.316Z,12.10
2019-02-18T11:08:19.577Z,12.20
2019-02-18T11:09:32.813Z,12.20
2019-02-18T11:10:46.037Z,12.40
2019-02-18T11:11:59.281Z,12.40
2019-02-18T11:13:12.521Z,12.60
2019-02-18T11:14:25.749Z,12.70
2019-02-18T11:15:39.209Z,12.80
2019-02-18T11:16:52.425Z,12.80
2019-02-18T11:18:05.672Z,12.90
2019-02-18T11:19:18.909Z,13.00
2019-02-18T11:20:32.133Z,13.10
2019-02-18T11:21:45.360Z,13.20
2019-02-18T11:22:58.589Z,13.20
2019-02-18T11:24:11.822Z,13.20
2019-02-18T11:25:25.045Z,13.20
2019-02-18T11:26:38.272Z,13.30
2019-02-18T11:27:51.493Z,13.30
2019-02-18T11:29:05.002Z,13.30
2019-02-18T11:30:18.894Z,13.40
2019-02-18T11:31:32.119Z,13.40
2019-02-18T11:32:45.345Z,13.50
2019-02-18T11:33:58.586Z,13.70
2019-02-18T11:35:11.814Z,13.90
2019-02-18T11:36:25.045Z,14.10
2019-02-18T11:37:38.280Z,14.20
2019-02-18T11:38:51.513Z,14.50
2019-02-18T11:40:08.006Z,14.80
2019-02-18T11:41:27.479Z,14.90
2019-02-18T11:42:37.456Z,15.00
2019-02-18T11:43:50.890Z,15.10
2019-02-18T11:45:05.941Z,15.30
2019-02-18T11:46:19.170Z,15.30
2019-02-18T11:47:32.446Z,15.50
2019-02-18T11:48:45.682Z,15.70
2019-02-18T11:49:58.915Z,15.90
2019-02-18T11:51:12.139Z,16.00
2019-02-18T11:52:25.364Z,16.30
2019-02-18T11:53:38.583Z,16.50
2019-02-18T11:54:51.831Z,16.90
2019-02-18T11:56:05.067Z,17.20
2019-02-18T11:57:18.289Z,17.60
2019-02-18T11:58:31.518Z,18.20
2019-02-18T11:59:44.745Z,18.90
2019-02-18T12:00:57.976Z,19.60
2019-02-18T12:02:11.490Z,20.90
2019-02-18T12:03:24.702Z,22.40
2019-02-18T12:04:37.926Z,23.60
2019-02-18T12:05:51.181Z,25.10
2019-02-18T12:07:04.401Z,26.30
2019-02-18T12:08:17.631Z,27.70
2019-02-18T12:09:30.857Z,28.90
2019-02-18T12:10:44.092Z,30.00
2019-02-18T12:11:57.316Z,30.60
2019-02-18T12:13:10.616Z,30.80
2019-02-18T12:14:23.836Z,31.60
2019-02-18T12:15:37.399Z,31.50
2019-02-18T12:16:50.656Z,31.60
2019-02-18T12:18:03.885Z,31.80
2019-02-18T12:19:17.098Z,31.90
2019-02-18T12:20:30.325Z,32.20
2019-02-18T12:21:43.554Z,32.80
2019-02-18T12:22:57.058Z,33.00
2019-02-18T12:24:10.696Z,32.90
2019-02-18T12:25:23.917Z,32.90
2019-02-18T12:26:37.170Z,32.90
2019-02-18T12:27:50.393Z,32.80
2019-02-18T12:29:03.618Z,32.40
2019-02-18T12:30:17.665Z,32.60
2019-02-18T12:31:31.194Z,32.80
2019-02-18T12:32:44.431Z,32.90
2019-02-18T12:33:57.747Z,33.10
2019-02-18T12:35:11.042Z,33.10
2019-02-18T12:36:24.282Z,32.90
2019-02-18T12:37:37.521Z,33.30
2019-02-18T12:38:50.748Z,33.30
2019-02-18T12:40:06.199Z,33.20
2019-02-18T12:41:19.697Z,33.60
2019-02-18T12:42:33.001Z,33.90
2019-02-18T12:43:46.287Z,34.20
2019-02-18T12:44:59.585Z,33.90
2019-02-18T12:46:15.700Z,34.30
2019-02-18T12:47:27.057Z,34.10
2019-02-18T12:48:40.281Z,33.60
2019-02-18T12:49:55.138Z,33.00
2019-02-18T12:51:08.364Z,33.20
2019-02-18T12:52:21.605Z,33.00
2019-02-18T12:53:34.817Z,33.30
2019-02-18T12:54:48.141Z,33.70
2019-02-18T12:56:01.430Z,33.90
2019-02-18T12:57:14.656Z,33.70
2019-02-18T12:58:28.132Z,33.80
2019-02-18T12:59:41.449Z,33.80
2019-02-18T13:00:54.762Z,33.50
2019-02-18T13:02:08.365Z,33.60
2019-02-18T13:03:21.780Z,33.70
2019-02-18T13:04:35.101Z,34.00
2019-02-18T13:05:48.645Z,33.90
2019-02-18T13:07:01.943Z,33.90
2019-02-18T13:08:15.242Z,33.90
2019-02-18T13:09:28.613Z,33.40
2019-02-18T13:10:41.850Z,33.10
2019-02-18T13:11:58.959Z,32.90
2019-02-18T13:13:10.505Z,33.20
2019-02-18T13:14:23.817Z,33.20
2019-02-18T13:15:37.121Z,33.40
2019-02-18T13:16:50.349Z,33.40
2019-02-18T13:19:16.154Z,33.60
2019-02-18T13:20:28.694Z,33.30
2019-02-18T13:21:41.261Z,32.90
2019-02-18T13:22:53.877Z,32.70
2019-02-18T13:24:07.182Z,33.10
2019-02-18T13:25:20.699Z,33.40
2019-02-18T13:26:33.509Z,33.30
2019-02-18T13:27:46.048Z,32.30
2019-02-18T13:28:58.586Z,32.30
2019-02-18T13:30:16.442Z,32.40
2019-02-18T13:31:29.754Z,32.40
2019-02-18T13:32:42.988Z,32.30
2019-02-18T13:33:56.226Z,32.50
2019-02-18T13:35:09.455Z,33.10
2019-02-18T13:36:22.747Z,33.20
2019-02-18T13:37:36.230Z,33.10
2019-02-18T13:38:49.464Z,33.30
2019-02-18T13:40:03.910Z,33.30
2019-02-18T13:41:17.710Z,33.60
2019-02-18T13:42:30.939Z,33.40
2019-02-18T13:43:44.548Z,33.70
2019-02-18T13:44:57.949Z,33.90
2019-02-18T13:46:11.170Z,33.60
2019-02-18T13:47:24.386Z,33.50
2019-02-18T13:48:37.614Z,33.40
2019-02-18T13:49:51.092Z,33.10
2019-02-18T13:51:04.322Z,33.20
2019-02-18T13:52:17.546Z,33.00
2019-02-18T13:53:30.789Z,33.00
2019-02-18T13:54:44.035Z,33.00
2019-02-18T13:55:57.250Z,32.90
2019-02-18T13:57:10.545Z,33.00
2019-02-18T13:58:23.776Z,32.80
2019-02-18T13:59:37.089Z,32.60
2019-02-18T14:00:50.878Z,32.20
2019-02-18T14:02:04.096Z,32.50
2019-02-18T14:03:17.608Z,32.30
2019-02-18T14:04:30.905Z,32.30
2019-02-18T14:05:44.166Z,32.20
2019-02-18T14:06:57.393Z,32.40
2019-02-18T14:08:10.617Z,32.60
2019-02-18T14:09:23.846Z,32.90
2019-02-18T14:10:37.082Z,32.70
2019-02-18T14:11:50.309Z,32.80
2019-02-18T14:13:03.530Z,33.00
2019-02-18T14:14:16.753Z,33.20
2019-02-18T14:15:29.986Z,33.40
2019-02-18T14:16:43.221Z,33.40
2019-02-18T14:17:56.443Z,33.20
2019-02-18T14:19:10.377Z,32.90
2019-02-18T14:20:23.594Z,32.80
2019-02-18T14:21:36.823Z,33.50
2019-02-18T14:22:50.446Z,33.70
2019-02-18T14:24:03.670Z,33.40
2019-02-18T14:25:17.611Z,33.20
2019-02-18T14:26:30.146Z,32.90
2019-02-18T14:27:42.687Z,32.20
2019-02-18T14:28:55.298Z,31.90
2019-02-18T14:30:09.413Z,31.40
2019-02-18T14:31:21.949Z,31.10
2019-02-18T14:32:34.554Z,31.00
2019-02-18T14:33:47.115Z,30.90
2019-02-18T14:34:59.662Z,30.90
2019-02-18T14:36:12.273Z,30.70
2019-02-18T14:37:24.812Z,30.80
2019-02-18T14:38:37.352Z,30.90
2019-02-18T14:39:50.005Z,31.00
2019-02-18T14:41:02.585Z,30.70
2019-02-18T14:42:15.126Z,30.90
2019-02-18T14:43:27.945Z,30.70
2019-02-18T14:44:40.800Z,30.50
2019-02-18T14:45:53.354Z,30.40
2019-02-18T14:47:05.890Z,29.90
2019-02-18T14:48:18.461Z,29.70
2019-02-18T14:49:31.065Z,29.30
2019-02-18T14:50:43.618Z,29.00
2019-02-18T14:51:57.191Z,29.10
2019-02-18T14:53:09.808Z,29.00
2019-02-18T14:54:22.364Z,29.10
2019-02-18T14:55:34.907Z,29.00
2019-02-18T14:56:47.458Z,28.70
2019-02-18T14:58:00.004Z,28.80
2019-02-18T14:59:12.551Z,28.90
2019-02-18T15:00:25.092Z,28.60
2019-02-18T15:01:37.634Z,28.60
2019-02-18T15:02:51.149Z,28.70
2019-02-18T15:04:04.057Z,28.30
2019-02-18T15:05:16.969Z,28.20
2019-02-18T15:06:29.820Z,28.20
2019-02-18T15:07:43.133Z,28.10
2019-02-18T15:08:55.754Z,27.90
2019-02-18T15:10:09.266Z,27.40
2019-02-18T15:11:21.809Z,27.50
2019-02-18T15:12:34.372Z,27.40
2019-02-18T15:13:46.992Z,27.30
2019-02-18T15:14:59.607Z,27.60
2019-02-18T15:16:12.576Z,27.60
2019-02-18T15:17:25.367Z,27.40
2019-02-18T15:18:37.985Z,27.40
2019-02-18T15:19:50.523Z,27.40
2019-02-18T15:21:03.078Z,27.30
2019-02-18T15:22:15.689Z,26.90
2019-02-18T15:23:28.232Z,26.70
2019-02-18T15:24:40.783Z,26.50
2019-02-18T15:25:54.006Z,26.10
2019-02-18T15:27:10.506Z,26.20
2019-02-18T15:28:23.742Z,26.30
2019-02-18T15:29:36.965Z,26.10
2019-02-18T15:30:50.199Z,26.20
2019-02-18T15:32:03.435Z,26.10
2019-02-18T15:33:16.672Z,25.90
2019-02-18T15:34:29.916Z,25.70
2019-02-18T15:35:43.141Z,25.50
2019-02-18T15:36:56.378Z,25.20
2019-02-18T15:38:09.606Z,25.20
2019-02-18T15:39:22.837Z,25.10
2019-02-18T15:40:36.138Z,24.80
2019-02-18T15:41:49.370Z,24.70
2019-02-18T15:43:02.854Z,24.50
2019-02-18T15:44:16.083Z,24.20
2019-02-18T15:45:29.581Z,24.10
2019-02-18T15:46:42.822Z,23.90
2019-02-18T15:48:01.508Z,23.90
2019-02-18T15:49:11.782Z,23.70
2019-02-18T15:50:25.012Z,23.60
2019-02-18T15:51:38.255Z,23.50
2019-02-18T15:52:51.722Z,23.20
2019-02-18T15:54:04.937Z,22.80
2019-02-18T15:55:18.167Z,22.90
2019-02-18T15:56:31.399Z,22.70
2019-02-18T15:57:44.718Z,22.30
2019-02-18T15:58:57.937Z,22.20
2019-02-18T16:00:19.995Z,22.00
2019-02-18T16:01:33.496Z,22.00
2019-02-18T16:02:46.726Z,21.80
2019-02-18T16:03:59.959Z,21.50
2019-02-18T16:05:13.180Z,21.40
2019-02-18T16:06:26.410Z,21.20
2019-02-18T16:07:39.652Z,21.00
2019-02-18T16:08:52.888Z,21.00